Kezdőlap
METAR-TAF:

METAR-TAF

Repülőterek :

Columbus Municipal Airport

Columbus, Nebraska, Amerikai Egyesült Államok

földrajzi szélesség: 41-27N, földrajzi hosszúság: 097-20W, magasság: 440 m

Jelenlegi meteorológiai megfigyelések

A jelentés 10 perccel ezelõtt készült, 20:56 UTC
Észak-északnyugati szél 14 kt
Hőmérséklet 24°C
Páratartalom 50%
Légköri nyomás 1005 hPa
Derült ég

METAR: KOLU 262056Z AUTO 33014KT CLR 24/13 A2968 RMK AO2 SLP045 T02390128 53002 PWINO $

Idő: 16:06 (21:06 UTC)


TAF: hiányzik

Meteorológiai megfigyelések és előrejelzések több, mint 4000 repülőtéren (METAR és TAF jelentéseket).

A térképen piros és sárga pontok jelzik az elérhető meteorológiai állomásokat.

Mozgassa az egeret a pont fölött, hogy megjelenjen az állomás neve.

Azután kattintson az időjárási megfigyelések és előrejelzések megtekintéséhez.

A térkép megváltoztatása: kattintson a fekete keresztel jelölt zöld gombra ráközelítéshez, a vonallal jelölt zöld gombra távolításhoz, vagy a zöld nyilakra a szomszédos térképek eléréséhez.


METAR-TAF: